»·PEaware :: SWA5432 KLAX-KSFO

SWA5432 :: KLAX-KSFO

FLIGHT INFORMATION

Flight Status: Arrived
Operator:
Southwest Airlines
More flights by this operator :: More flights under this callsign
Pilot: Anonymous 34646 (34646)
Aircraft: BOEING 737-700
(B737)
More flights by this aircraft type
Origin: KLAX Los Angeles Intl
United States
Destination: KSFO San Francisco Intl
United States
More flights between these airports :: More routes between these airports
Route: SUMMR2 STOKD SERFR SERFR4
File this flight plan on PilotEdge
Remarks: RMK / SIMBRIEF
Altitude:
(Current/Filed)
36,000ft
Speed:
(Current/Filed)
451kts
Departed: 01-Jun-21 09:04 PM
Arrived: 01-Jun-21 09:56 PM
Distance/Time
Traveled:
293nm/0:52
Distance/Time
To Go:
Arrived

Flight Plot

Page will automatically refresh every two minutes.

Flight plan parsing failed; only flown route is shown


Map Options




Map Legend


Flown Route
Filed Route
Departure Airport
Arrival Airport
Navaid (VOR, NDB)
Fix

Horizontal Profiles

Position Reports

Time Latitude Longitude Heading Altitude Ground
Speed
01-Jun-21 20:44 33.945804 -118.402342 123 134ft 0kts
01-Jun-21 20:45 33.945804 -118.402342 123 134ft 0kts
01-Jun-21 20:46 33.945804 -118.402342 123 134ft 0kts
01-Jun-21 20:47 33.945804 -118.402342 123 134ft 0kts
01-Jun-21 20:48 33.945804 -118.402342 123 134ft 0kts
01-Jun-21 20:49 33.945804 -118.402342 123 134ft 0kts
01-Jun-21 20:50 33.945804 -118.402342 123 134ft 0kts
01-Jun-21 20:51 33.945804 -118.402342 123 134ft 0kts
01-Jun-21 20:52 33.945804 -118.402342 123 134ft 0kts
01-Jun-21 20:53 33.945807 -118.402347 123 134ft 1kts
01-Jun-21 20:54 33.946148 -118.402982 122 134ft 0kts
01-Jun-21 20:55 33.946148 -118.402982 122 134ft 0kts
01-Jun-21 20:56 33.946148 -118.402982 122 134ft 0kts
01-Jun-21 20:57 33.946148 -118.402982 122 134ft 0kts
01-Jun-21 20:58 33.947242 -118.402696 353 134ft 9kts
01-Jun-21 20:59 33.948797 -118.401073 349 134ft 8kts
01-Jun-21 21:00 33.949158 -118.401550 318 134ft 0kts
01-Jun-21 21:01 33.949158 -118.401550 318 134ft 0kts
01-Jun-21 21:02 33.949423 -118.401777 338 134ft 11kts
01-Jun-21 21:03 33.948620 -118.417039 263 136ft 138kts
01-Jun-21 21:04 33.943207 -118.470805 265 2172ft 195kts
01-Jun-21 21:05 33.940098 -118.542155 263 5002ft 239kts
01-Jun-21 21:06 33.932693 -118.631042 265 8214ft 281kts
01-Jun-21 21:07 33.925130 -118.728771 266 11264ft 316kts
01-Jun-21 21:08 33.916937 -118.846831 271 12955ft 373kts
01-Jun-21 21:09 33.921228 -118.974623 275 15906ft 392kts
01-Jun-21 21:10 33.962512 -119.095478 306 18621ft 401kts
01-Jun-21 21:11 34.030945 -119.203242 322 21133ft 410kts
01-Jun-21 21:12 34.124198 -119.284911 327 23343ft 421kts
01-Jun-21 21:13 34.221341 -119.367984 327 25332ft 432kts
01-Jun-21 21:14 34.320494 -119.453840 327 27142ft 442kts
01-Jun-21 21:15 34.419838 -119.543820 320 28723ft 454kts
01-Jun-21 21:16 34.509827 -119.653806 317 30138ft 462kts
01-Jun-21 21:17 34.598932 -119.764190 317 31999ft 456kts
01-Jun-21 21:18 34.687742 -119.873846 318 33689ft 451kts
01-Jun-21 21:19 34.775407 -119.982378 318 35074ft 450kts
01-Jun-21 21:20 34.862871 -120.091236 318 35996ft 453kts
01-Jun-21 21:21 34.950837 -120.200820 317 36014ft 450kts
01-Jun-21 21:22 35.038003 -120.310350 317 36016ft 451kts
01-Jun-21 21:23 35.127090 -120.418323 321 36017ft 449kts
01-Jun-21 21:24 35.219693 -120.521019 321 36019ft 450kts
01-Jun-21 21:25 35.312383 -120.624574 320 36018ft 450kts
01-Jun-21 21:26 35.404617 -120.728835 320 36012ft 451kts
01-Jun-21 21:27 35.497306 -120.832096 324 36002ft 449kts
01-Jun-21 21:28 35.597386 -120.924222 326 35999ft 449kts
01-Jun-21 21:29 35.697205 -121.017092 326 35991ft 449kts
01-Jun-21 21:30 35.796542 -121.109588 326 35983ft 449kts
01-Jun-21 21:31 35.896367 -121.202614 325 35983ft 450kts
01-Jun-21 21:32 35.995934 -121.296371 325 35296ft 450kts
01-Jun-21 21:33 36.097135 -121.388740 330 33478ft 450kts
01-Jun-21 21:34 36.202618 -121.469690 329 30915ft 440kts
01-Jun-21 21:35 36.304706 -121.549043 329 28645ft 427kts
01-Jun-21 21:36 36.403914 -121.627085 329 26367ft 417kts
01-Jun-21 21:37 36.500911 -121.703593 328 24111ft 409kts
01-Jun-21 21:38 36.596306 -121.778789 328 21871ft 400kts
01-Jun-21 21:39 36.688184 -121.851784 328 19701ft 383kts
01-Jun-21 21:40 36.782411 -121.905795 346 17599ft 368kts
01-Jun-21 21:41 36.881690 -121.933320 347 15499ft 366kts
01-Jun-21 21:42 36.980341 -121.962709 343 13359ft 356kts
01-Jun-21 21:43 37.073017 -122.000000 342 11254ft 351kts
01-Jun-21 21:44 37.163071 -122.035426 341 10051ft 308kts
01-Jun-21 21:45 37.241900 -122.066362 341 8813ft 302kts
01-Jun-21 21:46 37.319160 -122.096746 340 7198ft 286kts
01-Jun-21 21:47 37.392919 -122.125402 342 5728ft 274kts
01-Jun-21 21:48 37.461226 -122.148343 341 4393ft 227kts
01-Jun-21 21:49 37.515997 -122.167169 340 3407ft 194kts
01-Jun-21 21:50 37.548360 -122.207628 294 2642ft 160kts
01-Jun-21 21:51 37.569181 -122.257028 295 1797ft 159kts
01-Jun-21 21:52 37.588203 -122.302302 297 1024ft 132kts
01-Jun-21 21:53 37.604547 -122.341158 298 363ft 121kts
01-Jun-21 21:55 37.618653 -122.374813 297 21ft 41kts
01-Jun-21 21:56 37.619560 -122.379436 226 21ft 0kts
01-Jun-21 21:57 37.619296 -122.379760 214 21ft 11kts
01-Jun-21 21:58 37.615954 -122.380080 208 21ft 16kts
01-Jun-21 21:59 37.613719 -122.382826 298 21ft 9kts
01-Jun-21 22:00 37.613276 -122.383721 212 21ft 0kts
01-Jun-21 22:01 37.613276 -122.383721 212 21ft 0kts
01-Jun-21 22:02 37.613276 -122.383721 212 21ft 0kts

Navigation Log

Ident Type
Flight plan parsing failed, navigation log unavailable